sensor_id;sensor_type;location;lat;lon;timestamp;P1;durP1;ratioP1;P2;durP2;ratioP2
39128;SDS011;24864;49.940;19.770;2023-02-15T00:01:56;117.82;;;58.63;;
39128;SDS011;24864;49.940;19.770;2023-02-15T00:04:25;119.88;;;58.67;;
39128;SDS011;24864;49.940;19.770;2023-02-15T00:07:13;87.25;;;45.28;;
39128;SDS011;24864;49.940;19.770;2023-02-15T00:09:42;101.07;;;47.25;;
39128;SDS011;24864;49.940;19.770;2023-02-15T00:12:10;92.43;;;45.20;;
39128;SDS011;24864;49.940;19.770;2023-02-15T00:14:40;101.45;;;52.97;;
39128;SDS011;24864;49.940;19.770;2023-02-15T00:17:08;108.85;;;56.60;;
39128;SDS011;24864;49.940;19.770;2023-02-15T00:19:36;91.13;;;43.83;;
39128;SDS011;24864;49.940;19.770;2023-02-15T00:22:06;75.57;;;40.38;;
39128;SDS011;24864;49.940;19.770;2023-02-15T00:24:34;59.17;;;31.67;;
39128;SDS011;24864;49.940;19.770;2023-02-15T00:27:02;39.08;;;22.50;;
39128;SDS011;24864;49.940;19.770;2023-02-15T00:29:30;39.80;;;22.27;;
39128;SDS011;24864;49.940;19.770;2023-02-15T00:32:00;36.25;;;21.65;;
39128;SDS011;24864;49.940;19.770;2023-02-15T00:34:28;42.90;;;21.13;;
39128;SDS011;24864;49.940;19.770;2023-02-15T00:36:56;38.30;;;23.23;;
39128;SDS011;24864;49.940;19.770;2023-02-15T00:39:25;33.47;;;20.98;;
39128;SDS011;24864;49.940;19.770;2023-02-15T00:41:53;41.20;;;21.70;;
39128;SDS011;24864;49.940;19.770;2023-02-15T00:44:21;31.23;;;20.70;;
39128;SDS011;24864;49.940;19.770;2023-02-15T00:46:49;37.88;;;22.13;;
39128;SDS011;24864;49.940;19.770;2023-02-15T00:49:19;43.22;;;24.45;;
39128;SDS011;24864;49.940;19.770;2023-02-15T00:51:47;46.90;;;26.23;;
39128;SDS011;24864;49.940;19.770;2023-02-15T00:54:15;48.92;;;29.33;;
39128;SDS011;24864;49.940;19.770;2023-02-15T00:56:43;54.25;;;30.05;;
39128;SDS011;24864;49.940;19.770;2023-02-15T00:59:11;63.30;;;35.78;;
39128;SDS011;24864;49.940;19.770;2023-02-15T01:01:39;59.60;;;35.17;;
39128;SDS011;24864;49.940;19.770;2023-02-15T01:04:07;84.88;;;45.67;;
39128;SDS011;24864;49.940;19.770;2023-02-15T01:06:37;92.70;;;49.22;;
39128;SDS011;24864;49.940;19.770;2023-02-15T01:09:05;95.15;;;47.85;;
39128;SDS011;24864;49.940;19.770;2023-02-15T01:11:33;106.60;;;52.58;;
39128;SDS011;24864;49.940;19.770;2023-02-15T01:14:01;101.65;;;51.38;;
39128;SDS011;24864;49.940;19.770;2023-02-15T01:16:30;90.82;;;46.92;;
39128;SDS011;24864;49.940;19.770;2023-02-15T01:18:58;73.22;;;37.60;;
39128;SDS011;24864;49.940;19.770;2023-02-15T01:21:28;71.45;;;39.63;;
39128;SDS011;24864;49.940;19.770;2023-02-15T01:23:58;58.75;;;30.65;;
39128;SDS011;24864;49.940;19.770;2023-02-15T01:26:26;49.05;;;27.20;;
39128;SDS011;24864;49.940;19.770;2023-02-15T01:28:54;51.03;;;29.00;;
39128;SDS011;24864;49.940;19.770;2023-02-15T01:31:22;68.88;;;34.38;;
39128;SDS011;24864;49.940;19.770;2023-02-15T01:33:51;57.42;;;31.95;;
39128;SDS011;24864;49.940;19.770;2023-02-15T01:36:19;78.97;;;41.45;;
39128;SDS011;24864;49.940;19.770;2023-02-15T01:38:47;84.00;;;44.38;;
39128;SDS011;24864;49.940;19.770;2023-02-15T01:41:17;74.10;;;38.42;;
39128;SDS011;24864;49.940;19.770;2023-02-15T01:43:50;63.45;;;34.90;;
39128;SDS011;24864;49.940;19.770;2023-02-15T01:46:20;58.20;;;32.60;;
39128;SDS011;24864;49.940;19.770;2023-02-15T01:48:52;57.50;;;31.38;;
39128;SDS011;24864;49.940;19.770;2023-02-15T01:51:23;55.17;;;30.70;;
39128;SDS011;24864;49.940;19.770;2023-02-15T01:53:54;70.10;;;37.75;;
39128;SDS011;24864;49.940;19.770;2023-02-15T01:56:27;61.60;;;35.03;;
39128;SDS011;24864;49.940;19.770;2023-02-15T01:58:59;60.17;;;33.42;;
39128;SDS011;24864;49.940;19.770;2023-02-15T02:01:30;53.60;;;29.02;;
39128;SDS011;24864;49.940;19.770;2023-02-15T02:04:00;50.63;;;28.33;;
39128;SDS011;24864;49.940;19.770;2023-02-15T02:06:33;47.63;;;27.33;;
39128;SDS011;24864;49.940;19.770;2023-02-15T02:09:04;50.60;;;28.15;;
39128;SDS011;24864;49.940;19.770;2023-02-15T02:11:33;51.97;;;29.40;;
39128;SDS011;24864;49.940;19.770;2023-02-15T02:14:02;57.78;;;31.05;;
39128;SDS011;24864;49.940;19.770;2023-02-15T02:16:33;54.45;;;30.38;;
39128;SDS011;24864;49.940;19.770;2023-02-15T02:19:15;59.45;;;31.35;;
39128;SDS011;24864;49.940;19.770;2023-02-15T02:22:07;52.25;;;30.48;;
39128;SDS011;24864;49.940;19.770;2023-02-15T02:25:06;48.60;;;28.45;;
39128;SDS011;24864;49.940;19.770;2023-02-15T02:27:52;45.30;;;28.40;;
39128;SDS011;24864;49.940;19.770;2023-02-15T02:30:33;51.13;;;28.35;;
39128;SDS011;24864;49.940;19.770;2023-02-15T02:33:21;53.20;;;29.75;;
39128;SDS011;24864;49.940;19.770;2023-02-15T02:36:14;57.55;;;29.38;;
39128;SDS011;24864;49.940;19.770;2023-02-15T02:38:53;60.65;;;32.47;;
39128;SDS011;24864;49.940;19.770;2023-02-15T02:41:30;62.60;;;33.47;;
39128;SDS011;24864;49.940;19.770;2023-02-15T02:44:02;61.80;;;33.17;;
39128;SDS011;24864;49.940;19.770;2023-02-15T02:46:36;55.35;;;28.80;;
39128;SDS011;24864;49.940;19.770;2023-02-15T02:49:08;60.55;;;32.33;;
39128;SDS011;24864;49.940;19.770;2023-02-15T02:51:36;66.95;;;32.63;;
39128;SDS011;24864;49.940;19.770;2023-02-15T02:54:05;63.40;;;33.80;;
39128;SDS011;24864;49.940;19.770;2023-02-15T02:56:35;56.95;;;31.73;;
39128;SDS011;24864;49.940;19.770;2023-02-15T02:59:05;62.53;;;33.08;;
39128;SDS011;24864;49.940;19.770;2023-02-15T03:01:36;56.65;;;32.72;;
39128;SDS011;24864;49.940;19.770;2023-02-15T03:04:08;70.80;;;34.85;;
39128;SDS011;24864;49.940;19.770;2023-02-15T03:06:39;62.92;;;35.72;;
39128;SDS011;24864;49.940;19.770;2023-02-15T03:09:09;65.50;;;36.22;;
39128;SDS011;24864;49.940;19.770;2023-02-15T03:11:41;57.17;;;34.05;;
39128;SDS011;24864;49.940;19.770;2023-02-15T03:14:11;59.67;;;31.73;;
39128;SDS011;24864;49.940;19.770;2023-02-15T03:16:40;61.10;;;33.03;;
39128;SDS011;24864;49.940;19.770;2023-02-15T03:19:11;57.97;;;32.72;;
39128;SDS011;24864;49.940;19.770;2023-02-15T03:21:42;67.68;;;34.28;;
39128;SDS011;24864;49.940;19.770;2023-02-15T03:24:17;62.35;;;32.00;;
39128;SDS011;24864;49.940;19.770;2023-02-15T03:26:49;58.35;;;31.05;;
39128;SDS011;24864;49.940;19.770;2023-02-15T03:29:19;63.90;;;33.10;;
39128;SDS011;24864;49.940;19.770;2023-02-15T03:31:49;63.72;;;33.08;;
39128;SDS011;24864;49.940;19.770;2023-02-15T03:34:20;66.25;;;34.20;;
39128;SDS011;24864;49.940;19.770;2023-02-15T03:36:50;58.03;;;32.03;;
39128;SDS011;24864;49.940;19.770;2023-02-15T03:39:22;61.67;;;32.05;;
39128;SDS011;24864;49.940;19.770;2023-02-15T03:41:55;63.65;;;33.03;;
39128;SDS011;24864;49.940;19.770;2023-02-15T03:44:26;60.95;;;32.88;;
39128;SDS011;24864;49.940;19.770;2023-02-15T03:46:58;67.47;;;34.30;;
39128;SDS011;24864;49.940;19.770;2023-02-15T03:52:01;67.75;;;32.88;;
39128;SDS011;24864;49.940;19.770;2023-02-15T03:54:31;72.10;;;35.55;;
39128;SDS011;24864;49.940;19.770;2023-02-15T03:57:12;74.75;;;38.45;;
39128;SDS011;24864;49.940;19.770;2023-02-15T03:59:57;65.55;;;33.78;;
39128;SDS011;24864;49.940;19.770;2023-02-15T04:02:46;65.10;;;33.08;;
39128;SDS011;24864;49.940;19.770;2023-02-15T04:05:26;65.95;;;35.20;;
39128;SDS011;24864;49.940;19.770;2023-02-15T04:07:54;55.22;;;30.80;;
39128;SDS011;24864;49.940;19.770;2023-02-15T04:10:22;60.30;;;31.55;;
39128;SDS011;24864;49.940;19.770;2023-02-15T04:13:08;62.85;;;28.80;;
39128;SDS011;24864;49.940;19.770;2023-02-15T04:15:36;58.05;;;26.75;;
39128;SDS011;24864;49.940;19.770;2023-02-15T04:18:22;52.03;;;29.45;;
39128;SDS011;24864;49.940;19.770;2023-02-15T04:21:09;55.28;;;30.35;;
39128;SDS011;24864;49.940;19.770;2023-02-15T04:23:55;52.78;;;29.00;;
39128;SDS011;24864;49.940;19.770;2023-02-15T04:26:40;55.97;;;29.77;;
39128;SDS011;24864;49.940;19.770;2023-02-15T04:29:09;56.45;;;27.77;;
39128;SDS011;24864;49.940;19.770;2023-02-15T04:31:37;48.78;;;26.13;;
39128;SDS011;24864;49.940;19.770;2023-02-15T04:34:05;41.05;;;20.33;;
39128;SDS011;24864;49.940;19.770;2023-02-15T04:36:34;41.47;;;20.92;;
39128;SDS011;24864;49.940;19.770;2023-02-15T04:39:03;38.78;;;21.23;;
39128;SDS011;24864;49.940;19.770;2023-02-15T04:41:31;36.25;;;21.50;;
39128;SDS011;24864;49.940;19.770;2023-02-15T04:43:59;39.60;;;22.02;;
39128;SDS011;24864;49.940;19.770;2023-02-15T04:46:28;39.40;;;22.50;;
39128;SDS011;24864;49.940;19.770;2023-02-15T04:48:56;45.13;;;23.63;;
39128;SDS011;24864;49.940;19.770;2023-02-15T04:51:24;46.60;;;23.65;;
39128;SDS011;24864;49.940;19.770;2023-02-15T04:53:54;41.97;;;22.57;;
39128;SDS011;24864;49.940;19.770;2023-02-15T04:56:22;46.00;;;23.17;;
39128;SDS011;24864;49.940;19.770;2023-02-15T04:58:51;44.08;;;21.88;;
39128;SDS011;24864;49.940;19.770;2023-02-15T05:01:19;39.97;;;20.95;;
39128;SDS011;24864;49.940;19.770;2023-02-15T05:03:47;36.50;;;18.88;;
39128;SDS011;24864;49.940;19.770;2023-02-15T05:06:15;36.35;;;19.65;;
39128;SDS011;24864;49.940;19.770;2023-02-15T05:08:43;40.00;;;21.55;;
39128;SDS011;24864;49.940;19.770;2023-02-15T05:11:13;39.00;;;21.75;;
39128;SDS011;24864;49.940;19.770;2023-02-15T05:13:41;36.50;;;19.90;;
39128;SDS011;24864;49.940;19.770;2023-02-15T05:16:09;39.15;;;20.17;;
39128;SDS011;24864;49.940;19.770;2023-02-15T05:18:37;37.30;;;21.08;;
39128;SDS011;24864;49.940;19.770;2023-02-15T05:21:05;37.60;;;20.00;;
39128;SDS011;24864;49.940;19.770;2023-02-15T05:23:33;38.08;;;21.10;;
39128;SDS011;24864;49.940;19.770;2023-02-15T05:26:02;36.78;;;19.55;;
39128;SDS011;24864;49.940;19.770;2023-02-15T05:28:49;33.78;;;18.88;;
39128;SDS011;24864;49.940;19.770;2023-02-15T05:31:17;41.33;;;20.92;;
39128;SDS011;24864;49.940;19.770;2023-02-15T05:33:46;39.70;;;21.98;;
39128;SDS011;24864;49.940;19.770;2023-02-15T05:36:15;36.75;;;19.98;;
39128;SDS011;24864;49.940;19.770;2023-02-15T05:38:43;36.08;;;20.10;;
39128;SDS011;24864;49.940;19.770;2023-02-15T05:41:11;35.97;;;20.70;;
39128;SDS011;24864;49.940;19.770;2023-02-15T05:43:39;34.40;;;19.08;;
39128;SDS011;24864;49.940;19.770;2023-02-15T05:46:08;30.65;;;18.75;;
39128;SDS011;24864;49.940;19.770;2023-02-15T05:48:37;39.05;;;20.90;;
39128;SDS011;24864;49.940;19.770;2023-02-15T05:51:06;32.75;;;19.02;;
39128;SDS011;24864;49.940;19.770;2023-02-15T05:53:35;39.70;;;19.77;;
39128;SDS011;24864;49.940;19.770;2023-02-15T05:56:05;45.42;;;22.55;;
39128;SDS011;24864;49.940;19.770;2023-02-15T05:58:34;35.70;;;18.95;;
39128;SDS011;24864;49.940;19.770;2023-02-15T06:01:08;34.88;;;21.13;;
39128;SDS011;24864;49.940;19.770;2023-02-15T06:03:38;39.65;;;20.70;;
39128;SDS011;24864;49.940;19.770;2023-02-15T06:06:06;40.83;;;21.33;;
39128;SDS011;24864;49.940;19.770;2023-02-15T06:08:35;42.35;;;21.38;;
39128;SDS011;24864;49.940;19.770;2023-02-15T06:11:04;40.65;;;20.73;;
39128;SDS011;24864;49.940;19.770;2023-02-15T06:13:33;37.80;;;21.63;;
39128;SDS011;24864;49.940;19.770;2023-02-15T06:16:04;37.43;;;20.10;;
39128;SDS011;24864;49.940;19.770;2023-02-15T06:18:34;38.10;;;20.90;;
39128;SDS011;24864;49.940;19.770;2023-02-15T06:21:02;37.15;;;20.60;;
39128;SDS011;24864;49.940;19.770;2023-02-15T06:23:30;37.30;;;20.38;;
39128;SDS011;24864;49.940;19.770;2023-02-15T06:25:58;35.03;;;19.23;;
39128;SDS011;24864;49.940;19.770;2023-02-15T06:28:27;37.55;;;20.65;;
39128;SDS011;24864;49.940;19.770;2023-02-15T06:30:55;33.63;;;20.17;;
39128;SDS011;24864;49.940;19.770;2023-02-15T06:33:23;41.08;;;20.58;;
39128;SDS011;24864;49.940;19.770;2023-02-15T06:35:53;34.65;;;18.42;;
39128;SDS011;24864;49.940;19.770;2023-02-15T06:38:21;38.63;;;20.33;;
39128;SDS011;24864;49.940;19.770;2023-02-15T06:40:49;32.72;;;19.92;;
39128;SDS011;24864;49.940;19.770;2023-02-15T06:43:17;31.40;;;17.52;;
39128;SDS011;24864;49.940;19.770;2023-02-15T06:45:46;32.58;;;19.77;;
39128;SDS011;24864;49.940;19.770;2023-02-15T06:48:14;32.03;;;18.45;;
39128;SDS011;24864;49.940;19.770;2023-02-15T06:50:42;38.78;;;19.58;;
39128;SDS011;24864;49.940;19.770;2023-02-15T06:53:12;39.38;;;20.52;;
39128;SDS011;24864;49.940;19.770;2023-02-15T06:55:40;32.97;;;19.77;;
39128;SDS011;24864;49.940;19.770;2023-02-15T06:58:09;38.50;;;20.17;;
39128;SDS011;24864;49.940;19.770;2023-02-15T07:00:36;33.63;;;19.67;;
39128;SDS011;24864;49.940;19.770;2023-02-15T07:03:05;37.30;;;21.65;;
39128;SDS011;24864;49.940;19.770;2023-02-15T07:05:33;30.85;;;19.13;;
39128;SDS011;24864;49.940;19.770;2023-02-15T07:08:02;36.75;;;20.90;;
39128;SDS011;24864;49.940;19.770;2023-02-15T07:10:31;39.47;;;22.83;;
39128;SDS011;24864;49.940;19.770;2023-02-15T07:13:00;42.03;;;22.10;;
39128;SDS011;24864;49.940;19.770;2023-02-15T07:15:27;39.30;;;21.02;;
39128;SDS011;24864;49.940;19.770;2023-02-15T07:17:56;33.85;;;19.60;;
39128;SDS011;24864;49.940;19.770;2023-02-15T07:20:24;36.28;;;21.38;;
39128;SDS011;24864;49.940;19.770;2023-02-15T07:22:53;37.97;;;20.02;;
39128;SDS011;24864;49.940;19.770;2023-02-15T07:25:21;32.60;;;18.92;;
39128;SDS011;24864;49.940;19.770;2023-02-15T07:27:56;37.85;;;20.90;;
39128;SDS011;24864;49.940;19.770;2023-02-15T07:30:24;29.45;;;18.08;;
39128;SDS011;24864;49.940;19.770;2023-02-15T07:32:54;40.97;;;19.73;;
39128;SDS011;24864;49.940;19.770;2023-02-15T07:35:45;33.70;;;18.40;;
39128;SDS011;24864;49.940;19.770;2023-02-15T07:38:15;33.45;;;19.23;;
39128;SDS011;24864;49.940;19.770;2023-02-15T07:40:43;34.63;;;18.95;;
39128;SDS011;24864;49.940;19.770;2023-02-15T07:43:13;32.83;;;18.05;;
39128;SDS011;24864;49.940;19.770;2023-02-15T07:45:41;31.33;;;18.83;;
39128;SDS011;24864;49.940;19.770;2023-02-15T07:48:10;30.35;;;17.25;;
39128;SDS011;24864;49.940;19.770;2023-02-15T07:50:39;33.35;;;18.00;;
39128;SDS011;24864;49.940;19.770;2023-02-15T07:53:07;32.35;;;19.02;;
39128;SDS011;24864;49.940;19.770;2023-02-15T07:55:35;32.85;;;17.75;;
39128;SDS011;24864;49.940;19.770;2023-02-15T07:58:03;34.03;;;19.35;;
39128;SDS011;24864;49.940;19.770;2023-02-15T08:00:32;32.17;;;19.38;;
39128;SDS011;24864;49.940;19.770;2023-02-15T08:03:22;29.45;;;19.13;;
39128;SDS011;24864;49.940;19.770;2023-02-15T08:05:55;30.50;;;18.85;;
39128;SDS011;24864;49.940;19.770;2023-02-15T08:11:00;31.02;;;18.65;;
39128;SDS011;24864;49.940;19.770;2023-02-15T08:13:47;29.33;;;18.25;;
39128;SDS011;24864;49.940;19.770;2023-02-15T08:16:24;29.27;;;17.10;;
39128;SDS011;24864;49.940;19.770;2023-02-15T08:18:54;33.17;;;19.10;;
39128;SDS011;24864;49.940;19.770;2023-02-15T08:21:22;32.30;;;17.75;;
39128;SDS011;24864;49.940;19.770;2023-02-15T08:23:52;31.77;;;18.30;;
39128;SDS011;24864;49.940;19.770;2023-02-15T08:26:20;32.63;;;18.58;;
39128;SDS011;24864;49.940;19.770;2023-02-15T08:28:49;40.47;;;19.27;;
39128;SDS011;24864;49.940;19.770;2023-02-15T08:31:18;30.08;;;17.30;;
39128;SDS011;24864;49.940;19.770;2023-02-15T08:33:48;31.35;;;18.50;;
39128;SDS011;24864;49.940;19.770;2023-02-15T08:36:18;30.92;;;18.67;;
39128;SDS011;24864;49.940;19.770;2023-02-15T08:38:47;30.15;;;17.90;;
39128;SDS011;24864;49.940;19.770;2023-02-15T08:41:16;31.58;;;18.90;;
39128;SDS011;24864;49.940;19.770;2023-02-15T08:43:46;30.25;;;18.90;;
39128;SDS011;24864;49.940;19.770;2023-02-15T08:46:15;34.50;;;19.25;;
39128;SDS011;24864;49.940;19.770;2023-02-15T08:48:44;32.13;;;19.15;;
39128;SDS011;24864;49.940;19.770;2023-02-15T08:51:15;30.02;;;18.52;;
39128;SDS011;24864;49.940;19.770;2023-02-15T08:53:44;29.85;;;18.05;;
39128;SDS011;24864;49.940;19.770;2023-02-15T08:56:15;31.77;;;19.83;;
39128;SDS011;24864;49.940;19.770;2023-02-15T08:58:44;31.40;;;19.27;;
39128;SDS011;24864;49.940;19.770;2023-02-15T09:01:13;31.63;;;18.70;;
39128;SDS011;24864;49.940;19.770;2023-02-15T09:03:45;32.25;;;18.80;;
39128;SDS011;24864;49.940;19.770;2023-02-15T09:06:15;33.20;;;21.05;;
39128;SDS011;24864;49.940;19.770;2023-02-15T09:08:44;32.65;;;18.65;;
39128;SDS011;24864;49.940;19.770;2023-02-15T09:11:13;36.13;;;21.00;;
39128;SDS011;24864;49.940;19.770;2023-02-15T09:13:49;35.47;;;19.20;;
39128;SDS011;24864;49.940;19.770;2023-02-15T09:16:18;31.75;;;18.92;;
39128;SDS011;24864;49.940;19.770;2023-02-15T09:18:47;30.13;;;18.88;;
39128;SDS011;24864;49.940;19.770;2023-02-15T09:21:17;30.73;;;18.27;;
39128;SDS011;24864;49.940;19.770;2023-02-15T09:23:47;33.17;;;19.75;;
39128;SDS011;24864;49.940;19.770;2023-02-15T09:26:17;34.80;;;17.80;;
39128;SDS011;24864;49.940;19.770;2023-02-15T09:28:47;34.20;;;19.10;;
39128;SDS011;24864;49.940;19.770;2023-02-15T09:31:16;37.58;;;20.75;;
39128;SDS011;24864;49.940;19.770;2023-02-15T09:33:47;31.45;;;19.02;;
39128;SDS011;24864;49.940;19.770;2023-02-15T09:36:17;32.78;;;20.95;;
39128;SDS011;24864;49.940;19.770;2023-02-15T09:38:50;30.85;;;18.80;;
39128;SDS011;24864;49.940;19.770;2023-02-15T09:41:32;26.83;;;18.23;;
39128;SDS011;24864;49.940;19.770;2023-02-15T09:44:26;33.05;;;18.85;;
39128;SDS011;24864;49.940;19.770;2023-02-15T09:47:07;30.52;;;19.55;;
39128;SDS011;24864;49.940;19.770;2023-02-15T09:50:03;29.88;;;19.60;;
39128;SDS011;24864;49.940;19.770;2023-02-15T09:52:41;29.80;;;19.52;;
39128;SDS011;24864;49.940;19.770;2023-02-15T09:55:20;32.90;;;19.83;;
39128;SDS011;24864;49.940;19.770;2023-02-15T09:58:05;31.90;;;20.30;;
39128;SDS011;24864;49.940;19.770;2023-02-15T10:00:40;31.38;;;19.33;;
39128;SDS011;24864;49.940;19.770;2023-02-15T10:03:15;31.73;;;20.52;;
39128;SDS011;24864;49.940;19.770;2023-02-15T10:05:54;32.17;;;18.98;;
39128;SDS011;24864;49.940;19.770;2023-02-15T10:08:44;31.42;;;19.13;;
39128;SDS011;24864;49.940;19.770;2023-02-15T10:11:26;27.45;;;19.25;;
39128;SDS011;24864;49.940;19.770;2023-02-15T10:17:09;27.52;;;17.17;;
39128;SDS011;24864;49.940;19.770;2023-02-15T10:19:43;28.95;;;19.20;;
39128;SDS011;24864;49.940;19.770;2023-02-15T10:22:21;31.73;;;19.50;;
39128;SDS011;24864;49.940;19.770;2023-02-15T10:25:07;28.20;;;18.80;;
39128;SDS011;24864;49.940;19.770;2023-02-15T10:27:48;28.55;;;17.85;;
39128;SDS011;24864;49.940;19.770;2023-02-15T10:30:17;28.58;;;18.45;;
39128;SDS011;24864;49.940;19.770;2023-02-15T10:32:51;32.53;;;20.33;;
39128;SDS011;24864;49.940;19.770;2023-02-15T10:35:25;26.50;;;18.50;;
39128;SDS011;24864;49.940;19.770;2023-02-15T10:38:02;26.55;;;17.95;;
39128;SDS011;24864;49.940;19.770;2023-02-15T10:40:44;26.83;;;17.80;;
39128;SDS011;24864;49.940;19.770;2023-02-15T10:43:19;24.25;;;16.42;;
39128;SDS011;24864;49.940;19.770;2023-02-15T10:45:58;26.08;;;15.93;;
39128;SDS011;24864;49.940;19.770;2023-02-15T10:48:55;26.90;;;17.13;;
39128;SDS011;24864;49.940;19.770;2023-02-15T10:51:38;23.60;;;17.88;;
39128;SDS011;24864;49.940;19.770;2023-02-15T10:54:18;24.33;;;17.30;;
39128;SDS011;24864;49.940;19.770;2023-02-15T10:56:53;22.83;;;16.52;;
39128;SDS011;24864;49.940;19.770;2023-02-15T10:59:29;20.73;;;16.02;;
39128;SDS011;24864;49.940;19.770;2023-02-15T11:02:13;23.90;;;16.10;;
39128;SDS011;24864;49.940;19.770;2023-02-15T11:04:51;21.10;;;15.80;;
39128;SDS011;24864;49.940;19.770;2023-02-15T11:07:23;27.83;;;16.73;;
39128;SDS011;24864;49.940;19.770;2023-02-15T11:09:55;22.85;;;17.08;;
39128;SDS011;24864;49.940;19.770;2023-02-15T11:12:29;21.15;;;15.82;;
39128;SDS011;24864;49.940;19.770;2023-02-15T11:15:00;25.38;;;17.17;;
39128;SDS011;24864;49.940;19.770;2023-02-15T11:17:35;29.58;;;18.63;;
39128;SDS011;24864;49.940;19.770;2023-02-15T11:20:07;29.00;;;18.60;;
39128;SDS011;24864;49.940;19.770;2023-02-15T11:22:42;21.83;;;16.83;;
39128;SDS011;24864;49.940;19.770;2023-02-15T11:25:16;22.83;;;17.00;;
39128;SDS011;24864;49.940;19.770;2023-02-15T11:27:48;23.13;;;16.55;;
39128;SDS011;24864;49.940;19.770;2023-02-15T11:30:19;22.63;;;16.70;;
39128;SDS011;24864;49.940;19.770;2023-02-15T11:32:50;23.63;;;17.17;;
39128;SDS011;24864;49.940;19.770;2023-02-15T11:35:23;21.90;;;15.52;;
39128;SDS011;24864;49.940;19.770;2023-02-15T11:37:54;23.25;;;16.80;;
39128;SDS011;24864;49.940;19.770;2023-02-15T11:40:27;23.00;;;15.85;;
39128;SDS011;24864;49.940;19.770;2023-02-15T11:43:00;21.42;;;15.88;;
39128;SDS011;24864;49.940;19.770;2023-02-15T11:45:31;21.40;;;16.77;;
39128;SDS011;24864;49.940;19.770;2023-02-15T11:48:01;21.63;;;16.08;;
39128;SDS011;24864;49.940;19.770;2023-02-15T11:50:36;19.85;;;15.52;;
39128;SDS011;24864;49.940;19.770;2023-02-15T11:53:06;19.70;;;14.30;;
39128;SDS011;24864;49.940;19.770;2023-02-15T11:55:38;17.27;;;14.05;;
39128;SDS011;24864;49.940;19.770;2023-02-15T11:58:11;18.70;;;14.55;;
39128;SDS011;24864;49.940;19.770;2023-02-15T12:00:44;16.77;;;14.02;;
39128;SDS011;24864;49.940;19.770;2023-02-15T12:03:14;23.05;;;16.45;;
39128;SDS011;24864;49.940;19.770;2023-02-15T12:05:48;20.05;;;15.70;;
39128;SDS011;24864;49.940;19.770;2023-02-15T12:08:29;22.65;;;15.63;;
39128;SDS011;24864;49.940;19.770;2023-02-15T12:11:06;23.30;;;15.50;;
39128;SDS011;24864;49.940;19.770;2023-02-15T12:13:49;26.98;;;15.68;;
39128;SDS011;24864;49.940;19.770;2023-02-15T12:16:22;25.98;;;15.70;;
39128;SDS011;24864;49.940;19.770;2023-02-15T12:18:50;22.27;;;15.35;;
39128;SDS011;24864;49.940;19.770;2023-02-15T12:21:25;22.58;;;16.42;;
39128;SDS011;24864;49.940;19.770;2023-02-15T12:23:56;21.85;;;15.75;;
39128;SDS011;24864;49.940;19.770;2023-02-15T12:26:26;19.97;;;14.83;;
39128;SDS011;24864;49.940;19.770;2023-02-15T12:28:58;26.88;;;16.80;;
39128;SDS011;24864;49.940;19.770;2023-02-15T12:31:31;33.38;;;21.30;;
39128;SDS011;24864;49.940;19.770;2023-02-15T12:34:08;54.03;;;32.53;;
39128;SDS011;24864;49.940;19.770;2023-02-15T12:36:40;24.85;;;18.25;;
39128;SDS011;24864;49.940;19.770;2023-02-15T12:39:20;24.15;;;17.00;;
39128;SDS011;24864;49.940;19.770;2023-02-15T12:42:03;23.60;;;17.05;;
39128;SDS011;24864;49.940;19.770;2023-02-15T12:44:34;26.20;;;18.42;;
39128;SDS011;24864;49.940;19.770;2023-02-15T12:47:04;31.10;;;19.77;;
39128;SDS011;24864;49.940;19.770;2023-02-15T12:49:34;26.45;;;16.85;;
39128;SDS011;24864;49.940;19.770;2023-02-15T12:52:04;29.38;;;17.95;;
39128;SDS011;24864;49.940;19.770;2023-02-15T12:54:38;26.17;;;18.35;;
39128;SDS011;24864;49.940;19.770;2023-02-15T12:57:21;65.97;;;34.70;;
39128;SDS011;24864;49.940;19.770;2023-02-15T12:59:53;54.15;;;28.05;;
39128;SDS011;24864;49.940;19.770;2023-02-15T13:02:24;40.63;;;21.98;;
39128;SDS011;24864;49.940;19.770;2023-02-15T13:04:55;40.15;;;24.30;;
39128;SDS011;24864;49.940;19.770;2023-02-15T13:07:25;32.95;;;21.75;;
39128;SDS011;24864;49.940;19.770;2023-02-15T13:09:58;34.95;;;23.02;;
39128;SDS011;24864;49.940;19.770;2023-02-15T13:12:27;57.35;;;28.17;;
39128;SDS011;24864;49.940;19.770;2023-02-15T13:14:58;32.72;;;21.35;;
39128;SDS011;24864;49.940;19.770;2023-02-15T13:17:29;36.65;;;22.27;;
39128;SDS011;24864;49.940;19.770;2023-02-15T13:20:00;33.75;;;21.50;;
39128;SDS011;24864;49.940;19.770;2023-02-15T13:22:35;41.92;;;23.55;;
39128;SDS011;24864;49.940;19.770;2023-02-15T13:25:10;37.42;;;20.35;;
39128;SDS011;24864;49.940;19.770;2023-02-15T13:27:41;33.67;;;20.77;;
39128;SDS011;24864;49.940;19.770;2023-02-15T13:30:16;39.38;;;22.83;;
39128;SDS011;24864;49.940;19.770;2023-02-15T13:32:54;29.33;;;18.20;;
39128;SDS011;24864;49.940;19.770;2023-02-15T13:35:23;27.90;;;17.92;;
39128;SDS011;24864;49.940;19.770;2023-02-15T13:40:52;31.23;;;20.10;;
39128;SDS011;24864;49.940;19.770;2023-02-15T13:43:25;32.38;;;20.52;;
39128;SDS011;24864;49.940;19.770;2023-02-15T13:46:06;39.03;;;23.75;;
39128;SDS011;24864;49.940;19.770;2023-02-15T13:48:44;40.33;;;23.30;;
39128;SDS011;24864;49.940;19.770;2023-02-15T13:51:19;36.15;;;22.02;;
39128;SDS011;24864;49.940;19.770;2023-02-15T13:53:53;38.97;;;22.83;;
39128;SDS011;24864;49.940;19.770;2023-02-15T13:56:30;40.75;;;23.67;;
39128;SDS011;24864;49.940;19.770;2023-02-15T13:59:16;60.22;;;31.20;;
39128;SDS011;24864;49.940;19.770;2023-02-15T14:01:55;33.92;;;19.73;;
39128;SDS011;24864;49.940;19.770;2023-02-15T14:04:37;74.60;;;36.95;;
39128;SDS011;24864;49.940;19.770;2023-02-15T14:10:12;61.63;;;32.85;;
39128;SDS011;24864;49.940;19.770;2023-02-15T14:13:19;69.80;;;35.25;;
39128;SDS011;24864;49.940;19.770;2023-02-15T14:16:03;41.45;;;24.60;;
39128;SDS011;24864;49.940;19.770;2023-02-15T14:18:35;70.45;;;35.83;;
39128;SDS011;24864;49.940;19.770;2023-02-15T14:21:06;92.10;;;46.13;;
39128;SDS011;24864;49.940;19.770;2023-02-15T14:23:40;56.38;;;30.85;;
39128;SDS011;24864;49.940;19.770;2023-02-15T14:26:14;56.40;;;30.52;;
39128;SDS011;24864;49.940;19.770;2023-02-15T14:28:47;69.18;;;34.42;;
39128;SDS011;24864;49.940;19.770;2023-02-15T14:31:21;148.55;;;69.93;;
39128;SDS011;24864;49.940;19.770;2023-02-15T14:33:55;63.42;;;34.05;;
39128;SDS011;24864;49.940;19.770;2023-02-15T14:36:24;141.43;;;67.63;;
39128;SDS011;24864;49.940;19.770;2023-02-15T14:38:59;96.88;;;47.50;;
39128;SDS011;24864;49.940;19.770;2023-02-15T14:41:56;51.08;;;32.03;;
39128;SDS011;24864;49.940;19.770;2023-02-15T14:44:27;92.35;;;45.15;;
39128;SDS011;24864;49.940;19.770;2023-02-15T14:46:58;85.28;;;44.30;;
39128;SDS011;24864;49.940;19.770;2023-02-15T14:49:31;77.68;;;38.40;;
39128;SDS011;24864;49.940;19.770;2023-02-15T14:52:03;59.13;;;33.42;;
39128;SDS011;24864;49.940;19.770;2023-02-15T14:57:25;78.05;;;36.20;;